createdAt,value
2022-12-03T00:00:24.976Z,53.10
2022-12-03T00:05:48.990Z,65.30
2022-12-03T00:11:11.811Z,59.83
2022-12-03T00:16:34.455Z,59.73
2022-12-03T00:21:56.508Z,59.63
2022-12-03T00:27:18.982Z,58.67
2022-12-03T00:32:41.596Z,52.43
2022-12-03T00:38:06.629Z,62.07
2022-12-03T00:43:29.125Z,62.13
2022-12-03T00:48:51.322Z,61.90
2022-12-03T00:54:13.816Z,60.93
2022-12-03T00:59:35.901Z,62.97
2022-12-03T01:04:58.629Z,55.93
2022-12-03T01:10:20.827Z,63.33
2022-12-03T01:15:43.095Z,54.57
2022-12-03T01:21:05.943Z,65.80
2022-12-03T01:26:28.196Z,54.53
2022-12-03T01:32:08.996Z,53.17
2022-12-03T01:37:31.465Z,63.27
2022-12-03T01:42:53.746Z,53.33
2022-12-03T01:48:16.823Z,57.60
2022-12-03T01:53:39.486Z,63.60
2022-12-03T01:59:02.647Z,60.43
2022-12-03T02:04:25.075Z,64.40
2022-12-03T02:09:48.029Z,69.30
2022-12-03T02:15:11.264Z,61.67
2022-12-03T02:20:40.830Z,64.87
2022-12-03T02:26:03.705Z,65.47
2022-12-03T02:31:26.390Z,53.90
2022-12-03T02:36:48.859Z,60.77
2022-12-03T02:42:30.806Z,60.43
2022-12-03T02:47:56.768Z,60.73
2022-12-03T02:53:22.614Z,56.37
2022-12-03T02:58:48.634Z,62.93
2022-12-03T03:04:11.420Z,60.33
2022-12-03T03:09:34.777Z,56.60
2022-12-03T03:14:58.281Z,64.77
2022-12-03T03:20:20.937Z,58.07
2022-12-03T03:25:58.937Z,59.70
2022-12-03T03:31:24.296Z,61.93
2022-12-03T03:36:47.097Z,62.10
2022-12-03T03:42:09.648Z,54.80
2022-12-03T03:47:32.560Z,59.97
2022-12-03T03:52:56.853Z,67.60
2022-12-03T03:58:19.343Z,59.83
2022-12-03T04:03:41.912Z,66.37
2022-12-03T04:09:04.165Z,64.57
2022-12-03T04:14:26.628Z,58.97
2022-12-03T04:19:48.978Z,61.10
2022-12-03T04:25:29.940Z,59.40
2022-12-03T04:30:52.134Z,61.97
2022-12-03T04:36:14.487Z,59.20
2022-12-03T04:41:37.050Z,62.93
2022-12-03T04:47:00.494Z,68.20
2022-12-03T04:52:23.406Z,64.87
2022-12-03T04:57:45.972Z,57.43
2022-12-03T05:03:08.431Z,63.30
2022-12-03T05:08:30.704Z,67.57
2022-12-03T05:13:53.887Z,67.27
2022-12-03T05:19:16.125Z,72.43
2022-12-03T05:24:38.630Z,58.17
2022-12-03T05:30:02.239Z,63.10
2022-12-03T05:35:25.122Z,60.93
2022-12-03T05:40:47.935Z,66.07
2022-12-03T05:46:10.281Z,58.87
2022-12-03T05:51:32.605Z,55.70
2022-12-03T05:56:54.927Z,67.20
2022-12-03T06:02:17.333Z,61.13
2022-12-03T06:07:39.901Z,64.90
2022-12-03T06:13:03.409Z,64.23
2022-12-03T06:18:25.575Z,67.13
2022-12-03T06:23:47.996Z,61.27
2022-12-03T06:29:10.667Z,72.30
2022-12-03T06:34:33.438Z,69.70
2022-12-03T06:39:56.024Z,65.07
2022-12-03T06:45:18.696Z,59.33
2022-12-03T06:50:41.138Z,56.47
2022-12-03T06:56:03.647Z,66.60
2022-12-03T07:01:26.631Z,77.03
2022-12-03T07:06:48.714Z,66.57
2022-12-03T07:12:11.189Z,73.33
2022-12-03T07:17:33.451Z,61.27
2022-12-03T07:22:55.862Z,73.27
2022-12-03T07:28:18.328Z,67.00
2022-12-03T07:33:40.612Z,81.00
2022-12-03T07:39:03.332Z,64.47
2022-12-03T07:44:26.274Z,77.23
2022-12-03T07:49:48.446Z,77.77
2022-12-03T07:55:12.734Z,65.20
2022-12-03T08:00:35.140Z,73.77
2022-12-03T08:05:57.623Z,64.63
2022-12-03T08:11:20.202Z,76.03
2022-12-03T08:16:44.180Z,73.93
2022-12-03T08:22:13.162Z,64.97
2022-12-03T08:27:35.968Z,64.07
2022-12-03T08:32:59.177Z,65.07
2022-12-03T08:38:24.876Z,76.93
2022-12-03T08:43:47.125Z,62.77
2022-12-03T08:49:09.667Z,60.40
2022-12-03T08:54:31.957Z,73.60
2022-12-03T08:59:58.959Z,73.43
2022-12-03T09:05:39.601Z,73.43
2022-12-03T09:11:02.735Z,75.47
2022-12-03T09:16:25.117Z,74.57
2022-12-03T09:21:47.789Z,66.43
2022-12-03T09:27:10.006Z,68.27
2022-12-03T09:32:32.390Z,78.10
2022-12-03T09:37:55.039Z,78.97
2022-12-03T09:43:18.662Z,68.80
2022-12-03T09:48:41.088Z,58.73
2022-12-03T09:54:05.854Z,66.70
2022-12-03T09:59:33.657Z,68.43
2022-12-03T10:04:57.646Z,74.97
2022-12-03T10:10:22.776Z,68.93
2022-12-03T10:15:45.080Z,77.67
2022-12-03T10:21:18.831Z,69.57
2022-12-03T10:26:41.362Z,77.07
2022-12-03T10:32:10.095Z,84.57
2022-12-03T10:37:32.317Z,76.37
2022-12-03T10:43:18.571Z,64.03
2022-12-03T10:48:40.820Z,65.50
2022-12-03T10:54:03.953Z,75.67
2022-12-03T10:59:30.180Z,64.97
2022-12-03T11:04:53.107Z,75.80
2022-12-03T11:10:17.863Z,74.63
2022-12-03T11:15:45.193Z,68.40
2022-12-03T11:21:09.350Z,70.83
2022-12-03T11:26:40.292Z,66.93
2022-12-03T11:32:02.631Z,65.53
2022-12-03T11:37:26.212Z,65.77
2022-12-03T11:42:49.666Z,70.63
2022-12-03T11:48:15.059Z,61.67
2022-12-03T11:53:37.550Z,64.73
2022-12-03T11:59:03.343Z,77.43
2022-12-03T12:04:35.102Z,62.47
2022-12-03T12:09:57.877Z,69.87
2022-12-03T12:15:39.032Z,67.10
2022-12-03T12:21:43.563Z,65.47
2022-12-03T12:27:07.504Z,78.03
2022-12-03T12:32:34.100Z,62.40
2022-12-03T12:38:10.966Z,65.57
2022-12-03T12:43:36.036Z,69.77
2022-12-03T12:49:00.099Z,59.13
2022-12-03T12:54:23.895Z,57.57
2022-12-03T12:59:46.301Z,64.13
2022-12-03T13:05:11.668Z,61.17
2022-12-03T13:10:38.338Z,62.17
2022-12-03T13:16:04.067Z,59.73
2022-12-03T13:21:40.035Z,62.13
2022-12-03T13:27:26.008Z,63.00
2022-12-03T13:32:48.501Z,50.93
2022-12-03T13:38:15.454Z,68.10
2022-12-03T13:43:44.334Z,71.93
2022-12-03T13:49:18.904Z,61.70
2022-12-03T13:54:41.247Z,60.07
2022-12-03T14:00:04.436Z,67.93
2022-12-03T14:05:34.596Z,63.03
2022-12-03T14:11:00.471Z,63.30
2022-12-03T14:16:23.606Z,56.33
2022-12-03T14:21:45.842Z,56.37
2022-12-03T14:27:08.999Z,57.77
2022-12-03T14:32:31.929Z,59.70
2022-12-03T14:37:54.086Z,63.63
2022-12-03T14:43:16.265Z,54.53
2022-12-03T14:48:38.536Z,51.50
2022-12-03T14:54:01.006Z,58.47
2022-12-03T14:59:27.576Z,64.80
2022-12-03T15:04:50.933Z,61.00
2022-12-03T15:10:13.756Z,48.97
2022-12-03T15:15:35.882Z,63.17
2022-12-03T15:20:58.066Z,54.10
2022-12-03T15:26:20.596Z,57.43
2022-12-03T15:31:43.203Z,48.63
2022-12-03T15:37:05.487Z,60.77
2022-12-03T15:42:29.867Z,52.90
2022-12-03T15:47:52.317Z,54.53
2022-12-03T15:53:14.670Z,45.20
2022-12-03T15:58:36.735Z,57.87
2022-12-03T16:03:59.146Z,51.00
2022-12-03T16:09:27.965Z,60.80
2022-12-03T16:14:50.861Z,56.90
2022-12-03T16:20:13.181Z,56.47
2022-12-03T16:25:35.365Z,52.50
2022-12-03T16:30:58.969Z,58.87
2022-12-03T16:36:21.088Z,63.03
2022-12-03T16:41:43.536Z,52.47
2022-12-03T16:47:05.799Z,50.30
2022-12-03T16:52:28.373Z,61.87
2022-12-03T16:57:50.629Z,62.57
2022-12-03T17:03:13.439Z,57.63
2022-12-03T17:08:35.933Z,54.00
2022-12-03T17:13:58.521Z,66.80
2022-12-03T17:19:20.972Z,54.20
2022-12-03T17:24:43.225Z,65.00
2022-12-03T17:30:07.321Z,52.17
2022-12-03T17:35:29.567Z,61.03
2022-12-03T17:40:51.706Z,57.33
2022-12-03T17:46:14.345Z,51.03
2022-12-03T17:51:36.699Z,64.13
2022-12-03T17:56:59.078Z,60.70
2022-12-03T18:02:21.624Z,58.60
2022-12-03T18:07:43.976Z,52.43
2022-12-03T18:13:06.998Z,58.83
2022-12-03T18:18:29.373Z,53.77
2022-12-03T18:23:52.452Z,69.60
2022-12-03T18:29:14.625Z,57.93
2022-12-03T18:34:37.306Z,61.57
2022-12-03T18:40:00.627Z,60.63
2022-12-03T18:45:23.786Z,69.50
2022-12-03T18:50:46.672Z,70.57
2022-12-03T18:56:10.201Z,67.97
2022-12-03T19:01:33.719Z,64.80
2022-12-03T19:06:56.272Z,72.70
2022-12-03T19:12:18.790Z,68.10
2022-12-03T19:17:41.249Z,61.13
2022-12-03T19:23:03.988Z,73.90
2022-12-03T19:28:26.646Z,71.97
2022-12-03T19:33:49.367Z,71.10
2022-12-03T19:39:11.719Z,66.50
2022-12-03T19:44:33.855Z,65.90
2022-12-03T19:49:56.579Z,69.17
2022-12-03T19:55:19.702Z,75.37
2022-12-03T20:00:41.969Z,66.93
2022-12-03T20:06:04.774Z,73.13
2022-12-03T20:11:29.806Z,72.50
2022-12-03T20:16:52.499Z,67.73
2022-12-03T20:22:14.985Z,71.50
2022-12-03T20:27:37.683Z,84.47
2022-12-03T20:32:59.810Z,78.63
2022-12-03T20:38:23.966Z,72.13
2022-12-03T20:43:46.214Z,79.63
2022-12-03T20:49:08.632Z,71.23
2022-12-03T20:54:31.213Z,85.13
2022-12-03T20:59:55.466Z,79.73
2022-12-03T21:05:18.596Z,77.67
2022-12-03T21:10:45.170Z,85.93
2022-12-03T21:16:10.210Z,74.03
2022-12-03T21:21:33.044Z,83.33
2022-12-03T21:26:55.996Z,74.57
2022-12-03T21:32:18.348Z,76.80
2022-12-03T21:37:40.695Z,81.37
2022-12-03T21:43:02.965Z,86.60
2022-12-03T21:48:25.545Z,94.60
2022-12-03T21:53:47.848Z,72.67
2022-12-03T21:59:10.179Z,77.23
2022-12-03T22:04:34.174Z,78.00
2022-12-03T22:09:56.610Z,75.93
2022-12-03T22:15:19.714Z,85.00
2022-12-03T22:20:42.825Z,83.30
2022-12-03T22:26:11.180Z,81.60
2022-12-03T22:31:33.338Z,94.27
2022-12-03T22:36:55.761Z,86.23
2022-12-03T22:42:18.272Z,86.93
2022-12-03T22:47:40.405Z,99.80
2022-12-03T22:53:03.004Z,90.10
2022-12-03T22:58:26.280Z,94.93
2022-12-03T23:03:48.922Z,88.80
2022-12-03T23:09:11.755Z,94.67
2022-12-03T23:14:33.997Z,108.30
2022-12-03T23:19:56.543Z,95.10
2022-12-03T23:25:20.219Z,98.63
2022-12-03T23:30:42.763Z,96.43
2022-12-03T23:36:06.556Z,96.37
2022-12-03T23:41:29.050Z,98.27
2022-12-03T23:46:51.332Z,92.83
2022-12-03T23:52:13.793Z,99.30
2022-12-03T23:57:36.533Z,105.50
